Information Last Ob Photographs Meteogram Network Table Neighbors Monthly Summaries Observation History Wind Roses Custom Wind Roses Data Calendar Download

Most Recent Observation

This application displays the last observation received by the IEM from this site. The time stamp is in America/Chicago timezone.

Observation Local Time18 Jan 2019, 1:54 PM
Observation UTC Time2019-01-18T19:54:00Z
Air Temp [F]23
Maximum Air Temperature [F]23
Minimum Air Temperature [F]19
Dew Point [F]18
Wind DirectionENE (70 degrees)
Wind Speed [knots]12
Altimeter [inches]29.99
Raw Observation/ProductKDSM 181954Z 07012G21KT 9SM -SN OVC011 M05/M08 A2999 RMK AO2 SNB32 SLP170 P0000 T10501078

This data was provided by a JSON(P) webservice. You can find more JSON services.